sensor_id;sensor_type;location;lat;lon;timestamp;pressure;altitude;pressure_sealevel;temperature;humidity
70954;BME280;58618;47.490;8.736;2023-05-02T00:02:01;96743.63;;;8.92;100.00
70954;BME280;58618;47.490;8.736;2023-05-02T00:04:48;96738.50;;;8.92;100.00
70954;BME280;58618;47.490;8.736;2023-05-02T00:07:36;96736.69;;;8.87;100.00
70954;BME280;58618;47.490;8.736;2023-05-02T00:10:23;96734.59;;;8.84;100.00
70954;BME280;58618;47.490;8.736;2023-05-02T00:13:11;96733.59;;;8.96;100.00
70954;BME280;58618;47.490;8.736;2023-05-02T00:15:59;96731.81;;;9.01;100.00
70954;BME280;58618;47.490;8.736;2023-05-02T00:18:47;96733.06;;;8.88;100.00
70954;BME280;58618;47.490;8.736;2023-05-02T00:21:34;96722.28;;;8.97;100.00
70954;BME280;58618;47.490;8.736;2023-05-02T00:24:21;96723.06;;;9.02;100.00
70954;BME280;58618;47.490;8.736;2023-05-02T00:27:08;96718.16;;;9.06;100.00
70954;BME280;58618;47.490;8.736;2023-05-02T00:29:56;96726.41;;;9.08;100.00
70954;BME280;58618;47.490;8.736;2023-05-02T00:32:45;96728.19;;;8.97;100.00
70954;BME280;58618;47.490;8.736;2023-05-02T00:35:33;96718.16;;;8.96;100.00
70954;BME280;58618;47.490;8.736;2023-05-02T00:38:20;96716.59;;;8.84;100.00
70954;BME280;58618;47.490;8.736;2023-05-02T00:41:07;96719.19;;;8.89;100.00
70954;BME280;58618;47.490;8.736;2023-05-02T00:43:54;96717.38;;;8.75;100.00
70954;BME280;58618;47.490;8.736;2023-05-02T00:46:42;96715.59;;;8.90;100.00
70954;BME280;58618;47.490;8.736;2023-05-02T00:49:30;96712.75;;;8.92;100.00
70954;BME280;58618;47.490;8.736;2023-05-02T00:52:18;96717.91;;;9.02;100.00
70954;BME280;58618;47.490;8.736;2023-05-02T00:55:06;96715.59;;;9.01;100.00
70954;BME280;58618;47.490;8.736;2023-05-02T00:57:54;96713.53;;;8.98;100.00
70954;BME280;58618;47.490;8.736;2023-05-02T01:00:58;96717.13;;;9.07;100.00
70954;BME280;58618;47.490;8.736;2023-05-02T01:03:54;96714.56;;;9.02;100.00
70954;BME280;58618;47.490;8.736;2023-05-02T01:07:01;96708.41;;;8.93;100.00
70954;BME280;58618;47.490;8.736;2023-05-02T01:10:00;96717.38;;;8.80;100.00
70954;BME280;58618;47.490;8.736;2023-05-02T01:12:56;96712.47;;;8.68;100.00
70954;BME280;58618;47.490;8.736;2023-05-02T01:15:46;96712.47;;;8.88;100.00
70954;BME280;58618;47.490;8.736;2023-05-02T01:18:37;96705.28;;;8.90;100.00
70954;BME280;58618;47.490;8.736;2023-05-02T01:21:26;96719.69;;;8.86;100.00
70954;BME280;58618;47.490;8.736;2023-05-02T01:24:20;96723.31;;;9.01;100.00
70954;BME280;58618;47.490;8.736;2023-05-02T01:27:17;96718.69;;;9.03;100.00
70954;BME280;58618;47.490;8.736;2023-05-02T01:30:11;96722.03;;;9.08;100.00
70954;BME280;58618;47.490;8.736;2023-05-02T01:33:01;96724.34;;;9.05;100.00
70954;BME280;58618;47.490;8.736;2023-05-02T01:35:51;96709.41;;;9.02;100.00
70954;BME280;58618;47.490;8.736;2023-05-02T01:38:41;96716.88;;;8.98;100.00
70954;BME280;58618;47.490;8.736;2023-05-02T01:41:30;96722.03;;;8.93;100.00
70954;BME280;58618;47.490;8.736;2023-05-02T01:44:20;96722.28;;;8.81;100.00
70954;BME280;58618;47.490;8.736;2023-05-02T01:47:10;96722.25;;;8.71;100.00
70954;BME280;58618;47.490;8.736;2023-05-02T01:49:58;96724.28;;;8.64;100.00
70954;BME280;58618;47.490;8.736;2023-05-02T01:52:48;96733.78;;;8.59;100.00
70954;BME280;58618;47.490;8.736;2023-05-02T01:55:37;96738.16;;;8.58;100.00
70954;BME280;58618;47.490;8.736;2023-05-02T01:58:27;96730.97;;;8.60;100.00
70954;BME280;58618;47.490;8.736;2023-05-02T02:01:17;96725.28;;;8.53;100.00
70954;BME280;58618;47.490;8.736;2023-05-02T02:04:08;96731.47;;;8.67;100.00
70954;BME280;58618;47.490;8.736;2023-05-02T02:07:01;96738.97;;;8.79;100.00
70954;BME280;58618;47.490;8.736;2023-05-02T02:09:49;96731.53;;;8.77;100.00
70954;BME280;58618;47.490;8.736;2023-05-02T02:12:40;96727.41;;;8.71;100.00
70954;BME280;58618;47.490;8.736;2023-05-02T02:15:31;96738.50;;;8.97;100.00
70954;BME280;58618;47.490;8.736;2023-05-02T02:18:21;96743.63;;;8.92;100.00
70954;BME280;58618;47.490;8.736;2023-05-02T02:21:15;96749.00;;;8.85;100.00
70954;BME280;58618;47.490;8.736;2023-05-02T02:24:05;96746.22;;;8.97;100.00
70954;BME280;58618;47.490;8.736;2023-05-02T02:26:53;96756.22;;;8.94;100.00
70954;BME280;58618;47.490;8.736;2023-05-02T02:29:40;96757.75;;;8.84;100.00
70954;BME280;58618;47.490;8.736;2023-05-02T02:32:28;96756.72;;;8.80;100.00
70954;BME280;58618;47.490;8.736;2023-05-02T02:35:15;96756.72;;;8.80;100.00
70954;BME280;58618;47.490;8.736;2023-05-02T02:38:11;96755.16;;;8.74;100.00
70954;BME280;58618;47.490;8.736;2023-05-02T02:41:08;96763.09;;;8.63;100.00
70954;BME280;58618;47.490;8.736;2023-05-02T02:44:04;96761.81;;;8.60;100.00
70954;BME280;58618;47.490;8.736;2023-05-02T02:46:59;96760.28;;;8.69;100.00
70954;BME280;58618;47.490;8.736;2023-05-02T02:50:06;96756.94;;;8.69;100.00
70954;BME280;58618;47.490;8.736;2023-05-02T02:52:59;96762.63;;;8.81;100.00
70954;BME280;58618;47.490;8.736;2023-05-02T02:55:58;96765.47;;;8.89;100.00
70954;BME280;58618;47.490;8.736;2023-05-02T02:58:51;96765.47;;;8.79;100.00
70954;BME280;58618;47.490;8.736;2023-05-02T03:01:44;96767.00;;;8.80;100.00
70954;BME280;58618;47.490;8.736;2023-05-02T03:04:34;96771.13;;;8.81;100.00
70954;BME280;58618;47.490;8.736;2023-05-02T03:07:22;96776.28;;;8.92;100.00
70954;BME280;58618;47.490;8.736;2023-05-02T03:10:10;96771.69;;;9.09;100.00
70954;BME280;58618;47.490;8.736;2023-05-02T03:12:59;96781.44;;;8.92;100.00
70954;BME280;58618;47.490;8.736;2023-05-02T03:19:13;96788.38;;;8.81;100.00
70954;BME280;58618;47.490;8.736;2023-05-02T03:22:01;96786.81;;;8.80;100.00
70954;BME280;58618;47.490;8.736;2023-05-02T03:24:48;96792.72;;;8.80;100.00
70954;BME280;58618;47.490;8.736;2023-05-02T03:27:36;96787.06;;;8.88;100.00
70954;BME280;58618;47.490;8.736;2023-05-02T03:30:24;96794.84;;;8.99;100.00
70954;BME280;58618;47.490;8.736;2023-05-02T03:33:12;96794.28;;;8.81;100.00
70954;BME280;58618;47.490;8.736;2023-05-02T03:35:59;96787.06;;;8.83;100.00
70954;BME280;58618;47.490;8.736;2023-05-02T03:38:47;96800.47;;;8.90;100.00
70954;BME280;58618;47.490;8.736;2023-05-02T03:41:34;96793.78;;;8.89;100.00
70954;BME280;58618;47.490;8.736;2023-05-02T03:44:21;96796.34;;;8.89;100.00
70954;BME280;58618;47.490;8.736;2023-05-02T03:47:10;96802.25;;;8.90;100.00
70954;BME280;58618;47.490;8.736;2023-05-02T03:49:58;96807.16;;;8.92;100.00
70954;BME280;58618;47.490;8.736;2023-05-02T03:52:46;96807.94;;;8.87;100.00
70954;BME280;58618;47.490;8.736;2023-05-02T03:55:38;96814.88;;;8.86;100.00
70954;BME280;58618;47.490;8.736;2023-05-02T03:58:25;96810.75;;;8.85;100.00
70954;BME280;58618;47.490;8.736;2023-05-02T04:01:13;96813.09;;;8.97;100.00
70954;BME280;58618;47.490;8.736;2023-05-02T04:04:02;96813.88;;;8.98;100.00
70954;BME280;58618;47.490;8.736;2023-05-02T04:06:50;96810.28;;;8.99;100.00
70954;BME280;58618;47.490;8.736;2023-05-02T04:09:37;96812.81;;;8.94;100.00
70954;BME280;58618;47.490;8.736;2023-05-02T04:12:24;96816.94;;;8.95;100.00
70954;BME280;58618;47.490;8.736;2023-05-02T04:15:12;96813.56;;;8.84;100.00
70954;BME280;58618;47.490;8.736;2023-05-02T04:17:59;96806.09;;;8.72;100.00
70954;BME280;58618;47.490;8.736;2023-05-02T04:20:48;96819.03;;;8.98;100.00
70954;BME280;58618;47.490;8.736;2023-05-02T04:23:36;96821.59;;;9.03;100.00
70954;BME280;58618;47.490;8.736;2023-05-02T04:26:23;96820.06;;;9.02;100.00
70954;BME280;58618;47.490;8.736;2023-05-02T04:29:10;96819.47;;;8.84;100.00
70954;BME280;58618;47.490;8.736;2023-05-02T04:31:59;96826.94;;;8.81;100.00
70954;BME280;58618;47.490;8.736;2023-05-02T04:34:46;96819.50;;;8.89;100.00
70954;BME280;58618;47.490;8.736;2023-05-02T04:37:35;96823.66;;;9.01;100.00
70954;BME280;58618;47.490;8.736;2023-05-02T04:40:22;96826.19;;;8.90;100.00
70954;BME280;58618;47.490;8.736;2023-05-02T04:43:10;96821.03;;;8.80;100.00
70954;BME280;58618;47.490;8.736;2023-05-02T04:45:57;96828.00;;;8.95;100.00
70954;BME280;58618;47.490;8.736;2023-05-02T04:48:44;96831.34;;;8.96;100.00
70954;BME280;58618;47.490;8.736;2023-05-02T04:51:32;96837.53;;;9.05;100.00
70954;BME280;58618;47.490;8.736;2023-05-02T04:54:20;96838.53;;;8.94;100.00
70954;BME280;58618;47.490;8.736;2023-05-02T04:57:08;96843.19;;;8.97;100.00
70954;BME280;58618;47.490;8.736;2023-05-02T04:59:55;96843.72;;;8.99;100.00
70954;BME280;58618;47.490;8.736;2023-05-02T05:02:43;96855.81;;;8.98;100.00
70954;BME280;58618;47.490;8.736;2023-05-02T05:05:30;96852.94;;;8.89;100.00
70954;BME280;58618;47.490;8.736;2023-05-02T05:08:17;96854.78;;;9.04;100.00
70954;BME280;58618;47.490;8.736;2023-05-02T05:11:06;96867.44;;;9.31;100.00
70954;BME280;58618;47.490;8.736;2023-05-02T05:13:53;96869.22;;;9.20;100.00
70954;BME280;58618;47.490;8.736;2023-05-02T05:16:40;96880.84;;;9.23;100.00
70954;BME280;58618;47.490;8.736;2023-05-02T05:19:28;96884.47;;;9.37;100.00
70954;BME280;58618;47.490;8.736;2023-05-02T05:22:15;96902.00;;;9.55;100.00
70954;BME280;58618;47.490;8.736;2023-05-02T05:25:03;96902.03;;;9.96;100.00
70954;BME280;58618;47.490;8.736;2023-05-02T05:27:52;96914.41;;;10.34;100.00
70954;BME280;58618;47.490;8.736;2023-05-02T05:30:40;96918.41;;;10.91;100.00
70954;BME280;58618;47.490;8.736;2023-05-02T05:33:28;96927.59;;;11.17;100.00
70954;BME280;58618;47.490;8.736;2023-05-02T05:36:15;96930.28;;;10.92;100.00
70954;BME280;58618;47.490;8.736;2023-05-02T05:39:03;96938.25;;;11.00;100.00
70954;BME280;58618;47.490;8.736;2023-05-02T05:41:50;96942.22;;;10.73;100.00
70954;BME280;58618;47.490;8.736;2023-05-02T05:44:39;96939.41;;;10.54;100.00
70954;BME280;58618;47.490;8.736;2023-05-02T05:47:26;96949.97;;;10.57;100.00
70954;BME280;58618;47.490;8.736;2023-05-02T05:50:13;96951.00;;;10.56;100.00
70954;BME280;58618;47.490;8.736;2023-05-02T05:53:01;96948.94;;;10.58;100.00
70954;BME280;58618;47.490;8.736;2023-05-02T05:55:48;96945.31;;;10.59;100.00
70954;BME280;58618;47.490;8.736;2023-05-02T05:58:35;96944.31;;;10.50;100.00
70954;BME280;58618;47.490;8.736;2023-05-02T06:01:24;96945.88;;;10.36;100.00
70954;BME280;58618;47.490;8.736;2023-05-02T06:04:11;96943.28;;;10.56;100.00
70954;BME280;58618;47.490;8.736;2023-05-02T06:06:59;96943.25;;;10.67;100.00
70954;BME280;58618;47.490;8.736;2023-05-02T06:09:46;96946.34;;;10.58;100.00
70954;BME280;58618;47.490;8.736;2023-05-02T06:12:33;96954.56;;;10.81;100.00
70954;BME280;58618;47.490;8.736;2023-05-02T06:15:21;96953.25;;;10.93;100.00
70954;BME280;58618;47.490;8.736;2023-05-02T06:18:09;96957.53;;;11.18;100.00
70954;BME280;58618;47.490;8.736;2023-05-02T06:20:56;96959.56;;;11.31;100.00
70954;BME280;58618;47.490;8.736;2023-05-02T06:23:44;96957.31;;;11.10;100.00
70954;BME280;58618;47.490;8.736;2023-05-02T06:26:31;96957.53;;;11.23;100.00
70954;BME280;58618;47.490;8.736;2023-05-02T06:29:19;96960.97;;;11.63;100.00
70954;BME280;58618;47.490;8.736;2023-05-02T06:32:06;96959.00;;;11.39;100.00
70954;BME280;58618;47.490;8.736;2023-05-02T06:34:56;96958.63;;;11.61;100.00
70954;BME280;58618;47.490;8.736;2023-05-02T06:37:43;96958.31;;;11.78;100.00
70954;BME280;58618;47.490;8.736;2023-05-02T06:40:33;96956.16;;;11.90;100.00
70954;BME280;58618;47.490;8.736;2023-05-02T06:43:21;96960.31;;;12.25;100.00
70954;BME280;58618;47.490;8.736;2023-05-02T06:46:08;96961.97;;;12.40;100.00
70954;BME280;58618;47.490;8.736;2023-05-02T06:48:56;96963.47;;;13.46;100.00
70954;BME280;58618;47.490;8.736;2023-05-02T06:51:44;96961.50;;;14.45;100.00
70954;BME280;58618;47.490;8.736;2023-05-02T06:54:32;96958.84;;;13.99;100.00
70954;BME280;58618;47.490;8.736;2023-05-02T06:57:19;96965.09;;;13.79;100.00
70954;BME280;58618;47.490;8.736;2023-05-02T07:00:07;96970.13;;;14.08;100.00
70954;BME280;58618;47.490;8.736;2023-05-02T07:02:55;96960.31;;;13.86;100.00
70954;BME280;58618;47.490;8.736;2023-05-02T07:05:43;96964.84;;;14.64;100.00
70954;BME280;58618;47.490;8.736;2023-05-02T07:08:31;96983.16;;;13.47;100.00
70954;BME280;58618;47.490;8.736;2023-05-02T07:11:19;96984.94;;;13.89;100.00
70954;BME280;58618;47.490;8.736;2023-05-02T07:14:08;96974.50;;;14.45;100.00
70954;BME280;58618;47.490;8.736;2023-05-02T07:16:55;96988.69;;;14.15;100.00
70954;BME280;58618;47.490;8.736;2023-05-02T07:19:43;96983.59;;;13.06;100.00
70954;BME280;58618;47.490;8.736;2023-05-02T07:22:30;96991.84;;;13.08;100.00
70954;BME280;58618;47.490;8.736;2023-05-02T07:25:19;96990.25;;;12.60;100.00
70954;BME280;58618;47.490;8.736;2023-05-02T07:28:06;96988.91;;;12.39;100.00
70954;BME280;58618;47.490;8.736;2023-05-02T07:30:54;96987.34;;;12.38;100.00
70954;BME280;58618;47.490;8.736;2023-05-02T07:33:41;96990.22;;;12.94;100.00
70954;BME280;58618;47.490;8.736;2023-05-02T07:36:28;96985.34;;;12.87;100.00
70954;BME280;58618;47.490;8.736;2023-05-02T07:39:16;96987.25;;;12.53;100.00
70954;BME280;58618;47.490;8.736;2023-05-02T07:42:04;96985.75;;;12.70;100.00
70954;BME280;58618;47.490;8.736;2023-05-02T07:44:52;96984.72;;;13.00;100.00
70954;BME280;58618;47.490;8.736;2023-05-02T07:47:39;96987.97;;;13.06;100.00
70954;BME280;58618;47.490;8.736;2023-05-02T07:50:27;96988.88;;;13.44;100.00
70954;BME280;58618;47.490;8.736;2023-05-02T07:53:14;96989.31;;;13.51;100.00
70954;BME280;58618;47.490;8.736;2023-05-02T07:56:02;96999.13;;;13.91;100.00
70954;BME280;58618;47.490;8.736;2023-05-02T07:58:52;96994.66;;;13.78;100.00
70954;BME280;58618;47.490;8.736;2023-05-02T08:01:40;96993.13;;;13.59;100.00
70954;BME280;58618;47.490;8.736;2023-05-02T08:04:27;96991.56;;;13.76;100.00
70954;BME280;58618;47.490;8.736;2023-05-02T08:07:14;96999.13;;;13.91;100.00
70954;BME280;58618;47.490;8.736;2023-05-02T08:10:02;96998.66;;;14.08;100.00
70954;BME280;58618;47.490;8.736;2023-05-02T08:12:49;97005.72;;;14.03;100.00
70954;BME280;58618;47.490;8.736;2023-05-02T08:15:38;97006.09;;;14.15;100.00
70954;BME280;58618;47.490;8.736;2023-05-02T08:18:26;97005.09;;;14.11;100.00
70954;BME280;58618;47.490;8.736;2023-05-02T08:21:13;97004.31;;;14.29;100.00
70954;BME280;58618;47.490;8.736;2023-05-02T08:24:00;97006.28;;;14.37;100.00
70954;BME280;58618;47.490;8.736;2023-05-02T08:26:48;97014.50;;;13.27;100.00
70954;BME280;58618;47.490;8.736;2023-05-02T08:29:35;97008.03;;;13.48;100.00
70954;BME280;58618;47.490;8.736;2023-05-02T08:32:24;97013.94;;;13.30;100.00
70954;BME280;58618;47.490;8.736;2023-05-02T08:35:12;97013.88;;;13.59;100.00
70954;BME280;58618;47.490;8.736;2023-05-02T08:37:59;97022.56;;;13.86;100.00
70954;BME280;58618;47.490;8.736;2023-05-02T08:40:46;97014.56;;;14.02;100.00
70954;BME280;58618;47.490;8.736;2023-05-02T08:43:34;97018.13;;;13.87;100.00
70954;BME280;58618;47.490;8.736;2023-05-02T08:46:22;97017.38;;;13.86;100.00
70954;BME280;58618;47.490;8.736;2023-05-02T08:49:14;97012.44;;;13.66;100.00
70954;BME280;58618;47.490;8.736;2023-05-02T08:52:02;97023.66;;;13.80;100.00
70954;BME280;58618;47.490;8.736;2023-05-02T08:54:52;97025.78;;;13.78;100.00
70954;BME280;58618;47.490;8.736;2023-05-02T08:57:42;97031.28;;;13.95;100.00
70954;BME280;58618;47.490;8.736;2023-05-02T09:00:30;97038.63;;;13.88;99.49
70954;BME280;58618;47.490;8.736;2023-05-02T09:03:25;97036.41;;;14.33;100.00
70954;BME280;58618;47.490;8.736;2023-05-02T09:06:17;97029.56;;;14.05;96.03
70954;BME280;58618;47.490;8.736;2023-05-02T09:09:05;97028.75;;;14.60;99.46
70954;BME280;58618;47.490;8.736;2023-05-02T09:11:53;97030.63;;;14.73;96.91
70954;BME280;58618;47.490;8.736;2023-05-02T09:14:42;97025.28;;;15.66;97.09
70954;BME280;58618;47.490;8.736;2023-05-02T09:17:38;97034.34;;;15.27;88.47
70954;BME280;58618;47.490;8.736;2023-05-02T09:20:26;97032.19;;;15.84;81.58
70954;BME280;58618;47.490;8.736;2023-05-02T09:23:14;97038.34;;;14.92;83.66
70954;BME280;58618;47.490;8.736;2023-05-02T09:26:10;97038.75;;;15.13;86.82
70954;BME280;58618;47.490;8.736;2023-05-02T09:28:59;97047.81;;;15.84;79.64
70954;BME280;58618;47.490;8.736;2023-05-02T09:31:46;97043.75;;;15.91;80.71
70954;BME280;58618;47.490;8.736;2023-05-02T09:34:33;97026.44;;;15.73;88.67
70954;BME280;58618;47.490;8.736;2023-05-02T09:37:33;97036.94;;;15.27;78.84
70954;BME280;58618;47.490;8.736;2023-05-02T09:40:23;97036.03;;;16.00;78.86
70954;BME280;58618;47.490;8.736;2023-05-02T09:43:15;97034.34;;;15.41;82.52
70954;BME280;58618;47.490;8.736;2023-05-02T09:46:05;97034.69;;;14.79;82.25
70954;BME280;58618;47.490;8.736;2023-05-02T09:48:54;97042.13;;;15.41;85.19
70954;BME280;58618;47.490;8.736;2023-05-02T09:51:41;97038.03;;;15.53;81.12
70954;BME280;58618;47.490;8.736;2023-05-02T09:54:33;97040.91;;;15.38;81.31
70954;BME280;58618;47.490;8.736;2023-05-02T09:57:38;97037.78;;;16.13;79.38
70954;BME280;58618;47.490;8.736;2023-05-02T10:00:39;97036.06;;;16.09;77.32
70954;BME280;58618;47.490;8.736;2023-05-02T10:03:27;97043.22;;;15.53;82.27
70954;BME280;58618;47.490;8.736;2023-05-02T10:06:17;97047.63;;;15.67;76.30
70954;BME280;58618;47.490;8.736;2023-05-02T10:09:05;97043.75;;;15.09;83.53
70954;BME280;58618;47.490;8.736;2023-05-02T10:11:54;97052.28;;;15.70;83.40
70954;BME280;58618;47.490;8.736;2023-05-02T10:14:47;97044.09;;;15.62;78.74
70954;BME280;58618;47.490;8.736;2023-05-02T10:17:39;97043.94;;;16.53;73.56
70954;BME280;58618;47.490;8.736;2023-05-02T10:20:30;97044.81;;;16.71;72.61
70954;BME280;58618;47.490;8.736;2023-05-02T10:23:18;97050.25;;;16.16;73.27
70954;BME280;58618;47.490;8.736;2023-05-02T10:26:07;97037.94;;;16.53;74.79
70954;BME280;58618;47.490;8.736;2023-05-02T10:28:55;97040.84;;;16.73;70.72
70954;BME280;58618;47.490;8.736;2023-05-02T10:31:44;97041.16;;;17.03;73.74
70954;BME280;58618;47.490;8.736;2023-05-02T10:34:31;97041.72;;;17.30;70.51
70954;BME280;58618;47.490;8.736;2023-05-02T10:37:19;97041.50;;;17.58;69.64
70954;BME280;58618;47.490;8.736;2023-05-02T10:40:09;97035.91;;;16.63;71.35
70954;BME280;58618;47.490;8.736;2023-05-02T10:42:57;97037.13;;;16.66;77.50
70954;BME280;58618;47.490;8.736;2023-05-02T10:45:44;97046.47;;;16.67;74.70
70954;BME280;58618;47.490;8.736;2023-05-02T10:48:33;97029.88;;;16.40;71.81
70954;BME280;58618;47.490;8.736;2023-05-02T10:51:26;97039.06;;;16.16;71.87
70954;BME280;58618;47.490;8.736;2023-05-02T10:54:18;97032.97;;;16.20;75.04
70954;BME280;58618;47.490;8.736;2023-05-02T10:57:06;97031.66;;;16.54;69.77
70954;BME280;58618;47.490;8.736;2023-05-02T11:00:19;97034.06;;;16.64;70.45
70954;BME280;58618;47.490;8.736;2023-05-02T11:03:06;97026.81;;;16.83;70.03
70954;BME280;58618;47.490;8.736;2023-05-02T11:06:05;97019.03;;;15.67;76.64
70954;BME280;58618;47.490;8.736;2023-05-02T11:08:52;97014.72;;;15.98;73.80
70954;BME280;58618;47.490;8.736;2023-05-02T11:12:00;97012.66;;;15.73;72.96
70954;BME280;58618;47.490;8.736;2023-05-02T11:14:49;97008.47;;;16.21;72.56
70954;BME280;58618;47.490;8.736;2023-05-02T11:17:58;97005.78;;;15.54;73.26
70954;BME280;58618;47.490;8.736;2023-05-02T11:20:45;97012.25;;;16.15;72.61
70954;BME280;58618;47.490;8.736;2023-05-02T11:23:34;97008.53;;;15.44;75.34
70954;BME280;58618;47.490;8.736;2023-05-02T11:26:22;97004.97;;;15.40;76.48
70954;BME280;58618;47.490;8.736;2023-05-02T11:29:11;97002.44;;;15.76;80.78
70954;BME280;58618;47.490;8.736;2023-05-02T11:31:58;96996.56;;;15.71;77.93
70954;BME280;58618;47.490;8.736;2023-05-02T11:34:45;97004.41;;;15.93;76.05
70954;BME280;58618;47.490;8.736;2023-05-02T11:37:35;97008.22;;;16.54;72.44
70954;BME280;58618;47.490;8.736;2023-05-02T11:40:25;97004.56;;;16.10;74.26
70954;BME280;58618;47.490;8.736;2023-05-02T11:43:14;97013.44;;;16.09;75.21
70954;BME280;58618;47.490;8.736;2023-05-02T11:46:02;97004.22;;;15.53;73.36
70954;BME280;58618;47.490;8.736;2023-05-02T11:48:50;97004.56;;;16.10;77.87
70954;BME280;58618;47.490;8.736;2023-05-02T11:51:38;96999.69;;;15.59;73.82
70954;BME280;58618;47.490;8.736;2023-05-02T11:54:25;96996.91;;;16.58;73.27
70954;BME280;58618;47.490;8.736;2023-05-02T11:57:15;96994.94;;;16.86;74.76
70954;BME280;58618;47.490;8.736;2023-05-02T12:00:03;97006.25;;;16.28;71.56
70954;BME280;58618;47.490;8.736;2023-05-02T12:02:50;97006.34;;;16.01;72.02
70954;BME280;58618;47.490;8.736;2023-05-02T12:05:38;97003.63;;;16.06;70.43
70954;BME280;58618;47.490;8.736;2023-05-02T12:08:26;97004.78;;;16.44;69.59
70954;BME280;58618;47.490;8.736;2023-05-02T12:11:15;96999.13;;;16.96;66.21
70954;BME280;58618;47.490;8.736;2023-05-02T12:14:04;97005.47;;;17.12;64.84
70954;BME280;58618;47.490;8.736;2023-05-02T12:16:52;97011.47;;;16.81;65.32
70954;BME280;58618;47.490;8.736;2023-05-02T12:19:39;97021.53;;;17.05;64.18
70954;BME280;58618;47.490;8.736;2023-05-02T12:22:27;97017.94;;;16.84;63.03
70954;BME280;58618;47.490;8.736;2023-05-02T12:25:15;97019.47;;;16.40;67.38
70954;BME280;58618;47.490;8.736;2023-05-02T12:28:02;97024.81;;;16.58;69.21
70954;BME280;58618;47.490;8.736;2023-05-02T12:30:51;97021.50;;;16.66;71.17
70954;BME280;58618;47.490;8.736;2023-05-02T12:33:41;97036.63;;;15.83;82.48
70954;BME280;58618;47.490;8.736;2023-05-02T12:36:28;97006.22;;;15.29;83.74
70954;BME280;58618;47.490;8.736;2023-05-02T12:39:15;97036.84;;;15.32;86.02
70954;BME280;58618;47.490;8.736;2023-05-02T12:42:10;97040.00;;;15.02;93.46
70954;BME280;58618;47.490;8.736;2023-05-02T12:44:57;97039.06;;;14.65;95.46
70954;BME280;58618;47.490;8.736;2023-05-02T12:47:46;97034.28;;;14.72;96.08
70954;BME280;58618;47.490;8.736;2023-05-02T12:50:35;97039.69;;;14.90;93.05
70954;BME280;58618;47.490;8.736;2023-05-02T12:53:39;97043.63;;;14.55;83.57
70954;BME280;58618;47.490;8.736;2023-05-02T12:56:27;97039.78;;;14.52;80.37
70954;BME280;58618;47.490;8.736;2023-05-02T12:59:27;97042.47;;;14.79;81.28
70954;BME280;58618;47.490;8.736;2023-05-02T13:02:14;97031.34;;;14.60;82.99
70954;BME280;58618;47.490;8.736;2023-05-02T13:05:12;97024.25;;;14.66;87.28
70954;BME280;58618;47.490;8.736;2023-05-02T13:08:00;97037.72;;;14.68;86.16
70954;BME280;58618;47.490;8.736;2023-05-02T13:10:47;97038.31;;;14.78;86.89
70954;BME280;58618;47.490;8.736;2023-05-02T13:13:34;97044.41;;;14.55;82.50
70954;BME280;58618;47.490;8.736;2023-05-02T13:16:22;97036.31;;;14.43;81.98
70954;BME280;58618;47.490;8.736;2023-05-02T13:19:10;97036.59;;;14.88;81.80
70954;BME280;58618;47.490;8.736;2023-05-02T13:21:59;97033.78;;;15.16;77.47
70954;BME280;58618;47.490;8.736;2023-05-02T13:24:47;97034.34;;;15.27;73.91
70954;BME280;58618;47.490;8.736;2023-05-02T13:27:34;97012.50;;;15.69;70.96
70954;BME280;58618;47.490;8.736;2023-05-02T13:30:21;97023.56;;;15.75;71.57
70954;BME280;58618;47.490;8.736;2023-05-02T13:33:09;97014.38;;;16.13;72.93
70954;BME280;58618;47.490;8.736;2023-05-02T13:35:56;97009.72;;;15.88;71.17
70954;BME280;58618;47.490;8.736;2023-05-02T13:38:45;97006.03;;;16.25;64.59
70954;BME280;58618;47.490;8.736;2023-05-02T13:41:32;96998.41;;;16.51;64.29
70954;BME280;58618;47.490;8.736;2023-05-02T13:44:20;96996.56;;;16.73;63.82
70954;BME280;58618;47.490;8.736;2023-05-02T13:47:07;97000.00;;;17.30;60.35
70954;BME280;58618;47.490;8.736;2023-05-02T13:49:54;97004.75;;;17.85;58.65
70954;BME280;58618;47.490;8.736;2023-05-02T13:52:42;97000.75;;;17.22;61.13
70954;BME280;58618;47.490;8.736;2023-05-02T13:55:30;96990.75;;;17.98;60.62
70954;BME280;58618;47.490;8.736;2023-05-02T13:58:18;96991.34;;;17.04;63.61
70954;BME280;58618;47.490;8.736;2023-05-02T14:01:05;96995.06;;;17.12;57.70
70954;BME280;58618;47.490;8.736;2023-05-02T14:03:52;96990.41;;;17.00;55.80
70954;BME280;58618;47.490;8.736;2023-05-02T14:06:40;96982.56;;;16.92;56.72
70954;BME280;58618;47.490;8.736;2023-05-02T14:09:27;96988.09;;;16.68;58.48
70954;BME280;58618;47.490;8.736;2023-05-02T14:12:16;96983.66;;;16.99;59.56
70954;BME280;58618;47.490;8.736;2023-05-02T14:15:04;96977.69;;;16.68;58.78
70954;BME280;58618;47.490;8.736;2023-05-02T14:17:51;96979.25;;;16.24;60.16
70954;BME280;58618;47.490;8.736;2023-05-02T14:20:38;96979.75;;;16.35;60.19
70954;BME280;58618;47.490;8.736;2023-05-02T14:23:26;96978.50;;;16.77;59.83
70954;BME280;58618;47.490;8.736;2023-05-02T14:26:14;96980.00;;;16.69;58.87
70954;BME280;58618;47.490;8.736;2023-05-02T14:29:02;96976.22;;;16.84;54.37
70954;BME280;58618;47.490;8.736;2023-05-02T14:31:50;96980.28;;;16.68;55.03
70954;BME280;58618;47.490;8.736;2023-05-02T14:34:37;96977.03;;;16.93;55.71
70954;BME280;58618;47.490;8.736;2023-05-02T14:37:24;96972.06;;;16.74;54.11
70954;BME280;58618;47.490;8.736;2023-05-02T14:40:12;96979.72;;;17.10;51.45
70954;BME280;58618;47.490;8.736;2023-05-02T14:42:59;96974.97;;;16.73;51.62
70954;BME280;58618;47.490;8.736;2023-05-02T14:45:49;96968.09;;;16.55;55.89
70954;BME280;58618;47.490;8.736;2023-05-02T14:48:36;96967.28;;;16.45;52.10
70954;BME280;58618;47.490;8.736;2023-05-02T14:51:23;96973.13;;;16.51;53.13
70954;BME280;58618;47.490;8.736;2023-05-02T14:54:11;96972.34;;;16.73;52.72
70954;BME280;58618;47.490;8.736;2023-05-02T14:57:00;96973.97;;;16.38;53.98